Time;durP1;ratioP1;P1;durP2;ratioP2;P2;SDS_P1;SDS_P2;PMS_P1;PMS_P2;Temp;Humidity;BMP_temperature;BMP_pressure;BME280_temperature;BME280_humidity;BME280_pressure;Samples;Min_cycle;Max_cycle;Signal;HPM_P1;HPM_P2
2021/08/28 00:01:11;;;;;;;13.10;6.78;;;384.50;2329.60;;;;;;5113219;28;20423;-75
2021/08/28 00:03:37;;;;;;;19.45;8.75;;;384.50;2329.60;;;;;;5114268;28;20020;-77
2021/08/28 00:06:03;;;;;;;84.60;10.48;;;384.30;2329.60;;;;;;5111191;28;20030;-74
2021/08/28 00:08:28;;;;;;;38.85;8.73;;;384.30;2329.60;;;;;;5110720;28;20012;-77
2021/08/28 00:10:54;;;;;;;74.20;7.70;;;384.20;2329.60;;;;;;5112682;28;20045;-74
2021/08/28 00:13:20;;;;;;;69.10;7.45;;;359.20;2329.60;;;;;;5092745;28;20114;-77
2021/08/28 00:15:45;;;;;;;62.65;6.85;;;359.10;2329.60;;;;;;5113405;28;20026;-77
2021/08/28 00:18:11;;;;;;;65.97;7.28;;;358.90;2329.60;;;;;;5112252;28;20476;-75
2021/08/28 00:20:38;;;;;;;66.45;7.78;;;358.80;2329.60;;;;;;5113565;28;20023;-75
2021/08/28 00:23:08;;;;;;;44.25;6.57;;;358.70;2329.60;;;;;;5111496;28;20019;-75
2021/08/28 00:25:34;;;;;;;16.27;6.22;;;358.70;2329.60;;;;;;5093632;28;20035;-74
2021/08/28 00:28:00;;;;;;;69.32;6.70;;;359.00;2329.60;;;;;;5111685;28;20020;-77
2021/08/28 00:30:27;;;;;;;29.13;5.13;;;359.00;2329.60;;;;;;5099253;28;20026;-75
2021/08/28 00:32:53;;;;;;;42.67;6.28;;;359.10;2329.60;;;;;;5111476;28;20395;-77
2021/08/28 00:35:18;;;;;;;44.40;5.80;;;359.20;2329.60;;;;;;5109141;28;20492;-77
2021/08/28 00:37:44;;;;;;;33.83;6.47;;;359.10;2329.60;;;;;;5113753;28;20028;-76
2021/08/28 00:40:10;;;;;;;37.60;5.20;;;359.00;2329.60;;;;;;5113405;28;20414;-77
2021/08/28 00:42:51;;;;;;;23.85;5.60;;;358.80;2329.60;;;;;;5111510;28;20046;-74
2021/08/28 00:45:18;;;;;;;27.40;5.88;;;358.70;2329.60;;;;;;5109718;28;20173;-75
2021/08/28 00:48:11;;;;;;;9.52;4.97;;;358.80;2329.60;;;;;;5112374;28;20376;-74
2021/08/28 00:50:38;;;;;;;25.50;6.30;;;359.00;2329.60;;;;;;5107810;28;20034;-76
2021/08/28 00:53:07;;;;;;;13.50;4.50;;;359.00;2329.60;;;;;;5110315;28;20084;-76
2021/08/28 00:55:36;;;;;;;11.13;4.13;;;359.10;2329.60;;;;;;5110719;28;20043;-77
2021/08/28 00:58:02;;;;;;;11.65;4.95;;;359.00;2329.60;;;;;;5110110;28;20118;-74
2021/08/28 01:00:29;;;;;;;8.63;5.78;;;359.10;2329.60;;;;;;5109560;28;20043;-75
2021/08/28 01:02:57;;;;;;;15.65;6.38;;;359.00;2329.60;;;;;;5111791;28;20468;-75
2021/08/28 01:05:36;;;;;;;11.00;6.80;;;359.00;2329.60;;;;;;5113039;28;20094;-76
2021/08/28 01:08:28;;;;;;;8.52;5.90;;;359.10;2329.60;;;;;;5113188;28;20106;-74
2021/08/28 01:11:07;;;;;;;10.63;6.60;;;359.20;2329.60;;;;;;5110897;28;20380;-76
2021/08/28 01:13:34;;;;;;;9.30;6.47;;;359.10;2329.60;;;;;;5107214;28;20020;-76
2021/08/28 01:16:01;;;;;;;13.52;7.50;;;359.10;2329.60;;;;;;5106260;28;20103;-77
2021/08/28 01:18:28;;;;;;;10.32;7.18;;;359.00;2329.60;;;;;;5110829;28;20060;-77
2021/08/28 01:21:16;;;;;;;9.10;7.03;;;359.10;2329.60;;;;;;5112552;28;20023;-76
2021/08/28 01:23:44;;;;;;;14.40;7.53;;;358.90;2329.60;;;;;;5112252;28;20040;-76
2021/08/28 01:26:23;;;;;;;22.30;8.82;;;359.10;2329.60;;;;;;5113197;28;20020;-75
2021/08/28 01:28:55;;;;;;;23.55;7.97;;;359.00;2329.60;;;;;;5106522;28;20076;-75
2021/08/28 01:31:22;;;;;;;17.25;6.30;;;358.80;2329.60;;;;;;5111170;28;20054;-76
2021/08/28 01:33:50;;;;;;;19.45;6.07;;;358.70;2329.60;;;;;;5109784;28;20022;-77
2021/08/28 01:36:17;;;;;;;15.15;6.78;;;358.70;2329.60;;;;;;5109288;28;20022;-77
2021/08/28 01:38:45;;;;;;;29.35;6.90;;;358.70;2329.60;;;;;;5111201;28;20068;-77
2021/08/28 01:41:11;;;;;;;22.88;7.25;;;358.70;2329.60;;;;;;5110217;28;20102;-75
2021/08/28 01:43:37;;;;;;;30.25;7.75;;;358.70;2329.60;;;;;;5110611;28;20026;-76
2021/08/28 01:46:04;;;;;;;24.83;7.75;;;358.60;2329.60;;;;;;5107110;28;20027;-74
2021/08/28 01:48:32;;;;;;;15.75;7.07;;;358.70;2329.60;;;;;;5107891;28;20034;-75
2021/08/28 01:50:58;;;;;;;30.65;8.40;;;358.80;2329.60;;;;;;5107382;28;20049;-77
2021/08/28 01:53:25;;;;;;;33.85;8.40;;;358.80;2329.60;;;;;;5109335;28;20035;-76
2021/08/28 01:55:51;;;;;;;28.65;7.28;;;358.90;2329.60;;;;;;5104282;28;20118;-74
2021/08/28 01:58:17;;;;;;;33.53;8.20;;;358.80;2329.60;;;;;;5109819;28;20148;-77
2021/08/28 02:00:42;;;;;;;12.15;7.07;;;358.90;2329.60;;;;;;5109915;28;20011;-76
2021/08/28 02:03:08;;;;;;;23.50;7.90;;;359.20;2329.60;;;;;;5107369;28;20460;-77
2021/08/28 02:05:39;;;;;;;19.20;7.90;;;359.30;2329.60;;;;;;5111624;28;20020;-76
2021/08/28 02:08:08;;;;;;;17.73;8.00;;;384.00;2329.60;;;;;;5111646;28;20102;-77
2021/08/28 02:10:57;;;;;;;18.90;9.80;;;384.20;2329.60;;;;;;5106989;28;20050;-76
2021/08/28 02:13:39;;;;;;;18.13;8.32;;;384.30;2329.60;;;;;;5107577;28;20024;-75
2021/08/28 02:16:09;;;;;;;27.55;8.90;;;384.30;2329.60;;;;;;5092309;28;20102;-76
2021/08/28 02:18:52;;;;;;;46.65;10.32;;;384.50;2329.60;;;;;;5104021;28;20020;-76
2021/08/28 02:21:20;;;;;;;29.77;9.20;;;384.20;2329.60;;;;;;5110781;28;20023;-76
2021/08/28 02:23:56;;;;;;;20.27;8.57;;;384.00;2329.60;;;;;;5111673;28;20045;-76
2021/08/28 02:26:24;;;;;;;;;;;384.00;2329.60;;;;;;5112185;28;20038;-76
2021/08/28 02:28:56;;;;;;;17.73;8.88;;;384.10;2329.60;;;;;;5107269;28;19974;-75
2021/08/28 02:31:28;;;;;;;18.67;9.48;;;384.20;2329.60;;;;;;5107255;28;20128;-75
2021/08/28 02:33:56;;;;;;;27.98;10.32;;;384.30;2329.60;;;;;;5106915;28;20028;-75
2021/08/28 02:36:21;;;;;;;31.77;10.35;;;384.20;2329.60;;;;;;5108179;28;20119;-75
2021/08/28 02:38:49;;;;;;;34.00;10.63;;;384.30;2329.60;;;;;;5107161;28;20099;-76
2021/08/28 02:41:16;;;;;;;33.92;11.10;;;384.40;2329.60;;;;;;5111461;28;20019;-76
2021/08/28 02:43:44;;;;;;;63.58;11.30;;;384.40;2329.60;;;;;;5115313;28;20059;-75
2021/08/28 02:46:10;;;;;;;48.28;11.98;;;384.40;2329.60;;;;;;5113808;28;20019;-77
2021/08/28 02:48:38;;;;;;;49.03;11.07;;;384.30;2329.60;;;;;;5112524;28;20469;-77
2021/08/28 02:51:07;;;;;;;27.63;11.55;;;384.30;2329.60;;;;;;5113873;28;20068;-76
2021/08/28 02:53:34;;;;;;;63.97;12.23;;;384.40;2329.60;;;;;;5114429;28;20069;-75
2021/08/28 02:56:01;;;;;;;51.40;13.30;;;384.30;2329.60;;;;;;5109914;28;20047;-74
2021/08/28 02:58:27;;;;;;;86.10;14.40;;;384.30;2329.60;;;;;;5111057;28;20107;-74
2021/08/28 03:00:55;;;;;;;33.90;13.25;;;384.30;2329.60;;;;;;5113671;28;20103;-76
2021/08/28 03:03:21;;;;;;;42.05;13.52;;;384.40;2329.60;;;;;;5110982;28;20472;-77
2021/08/28 03:05:50;;;;;;;27.73;13.60;;;384.70;2329.60;;;;;;5114650;28;20404;-77
2021/08/28 03:08:18;;;;;;;41.53;13.75;;;384.70;2329.60;;;;;;5114400;28;20024;-77
2021/08/28 03:10:49;;;;;;;35.17;12.98;;;384.80;2329.60;;;;;;5115400;28;20027;-76
2021/08/28 03:13:16;;;;;;;27.90;12.23;;;384.90;2329.60;;;;;;5113047;28;20092;-76
2021/08/28 03:15:46;;;;;;;33.33;12.75;;;384.90;2329.60;;;;;;5110964;28;20020;-76
2021/08/28 03:18:13;;;;;;;26.52;13.57;;;409.70;2355.20;;;;;;5109072;28;20035;-76
2021/08/28 03:20:42;;;;;;;49.38;13.00;;;409.70;2355.20;;;;;;5114426;28;20009;-76
2021/08/28 03:23:09;;;;;;;24.63;12.73;;;384.90;2329.60;;;;;;5110096;28;20007;-76
2021/08/28 03:25:37;;;;;;;24.20;11.70;;;409.60;2355.20;;;;;;5113049;28;20022;-76
2021/08/28 03:28:04;;;;;;;21.55;11.35;;;409.70;2355.20;;;;;;5114957;28;20480;-73
2021/08/28 03:30:30;;;;;;;44.35;12.05;;;409.70;2355.20;;;;;;5113007;28;20020;-76
2021/08/28 03:32:57;;;;;;;49.60;13.15;;;409.60;2355.20;;;;;;5113071;28;20116;-74
2021/08/28 03:35:24;;;;;;;36.38;12.57;;;409.60;2355.20;;;;;;5111329;28;20384;-75
2021/08/28 03:37:51;;;;;;;35.40;12.38;;;409.70;2355.20;;;;;;5113214;28;20019;-77
2021/08/28 03:40:18;;;;;;;28.70;11.80;;;409.70;2355.20;;;;;;5111100;28;20024;-76
2021/08/28 03:42:44;;;;;;;36.28;13.00;;;409.80;2355.20;;;;;;5114844;28;20103;-75
2021/08/28 03:45:10;;;;;;;53.85;14.10;;;409.70;2355.20;;;;;;5114634;28;20098;-78
2021/08/28 03:47:40;;;;;;;39.92;12.43;;;409.70;2355.20;;;;;;5091615;28;20012;-75
2021/08/28 03:50:06;;;;;;;31.08;11.88;;;409.60;2355.20;;;;;;5112786;28;20026;-77
2021/08/28 03:52:33;;;;;;;57.20;13.25;;;409.60;2355.20;;;;;;5104489;28;20024;-76
2021/08/28 03:54:59;;;;;;;30.15;12.90;;;409.70;2355.20;;;;;;5092063;28;20036;-77
2021/08/28 03:57:25;;;;;;;51.83;14.88;;;409.90;2355.20;;;;;;5114898;28;20038;-76
2021/08/28 03:59:50;;;;;;;47.38;13.75;;;409.90;2355.20;;;;;;5104499;28;20053;-78
2021/08/28 04:02:16;;;;;;;41.55;12.30;;;409.90;2355.20;;;;;;5110284;28;20460;-78
2021/08/28 04:04:42;;;;;;;21.10;12.23;;;409.70;2355.20;;;;;;5111660;28;20484;-75
2021/08/28 04:07:08;;;;;;;25.95;12.75;;;409.90;2355.20;;;;;;5113663;28;20099;-76
2021/08/28 04:09:34;;;;;;;32.13;12.05;;;409.90;2355.20;;;;;;5110424;28;20408;-78
2021/08/28 04:11:59;;;;;;;28.52;13.98;;;409.90;2355.20;;;;;;5114397;28;20035;-78
2021/08/28 04:14:25;;;;;;;45.67;14.65;;;410.00;2355.20;;;;;;5114764;28;20395;-77
2021/08/28 04:16:51;;;;;;;28.63;13.57;;;409.90;2355.20;;;;;;5109763;28;20038;-78
2021/08/28 04:19:17;;;;;;;52.15;15.10;;;410.00;2355.20;;;;;;5101505;28;20020;-75
2021/08/28 04:21:42;;;;;;;35.05;14.27;;;410.00;2355.20;;;;;;5110394;28;20102;-77
2021/08/28 04:24:08;;;;;;;77.20;16.60;;;410.00;2355.20;;;;;;5094642;28;20024;-76
2021/08/28 04:26:34;;;;;;;83.18;16.02;;;410.00;2355.20;;;;;;5110180;28;20376;-77
2021/08/28 04:29:00;;;;;;;30.67;13.52;;;410.00;2355.20;;;;;;5113868;28;20027;-78
2021/08/28 04:31:25;;;;;;;20.05;12.07;;;410.00;2355.20;;;;;;5090669;28;20123;-78
2021/08/28 04:33:51;;;;;;;23.08;13.77;;;410.00;2355.20;;;;;;5109281;28;20038;-78
2021/08/28 04:36:17;;;;;;;22.80;12.48;;;410.20;2355.20;;;;;;5091268;28;20024;-75
2021/08/28 04:38:43;;;;;;;34.97;13.35;;;410.10;2355.20;;;;;;5108103;28;20438;-75
2021/08/28 04:41:08;;;;;;;32.92;14.15;;;410.00;2355.20;;;;;;5112890;28;20380;-75
2021/08/28 04:43:34;;;;;;;33.55;14.23;;;410.00;2355.20;;;;;;5113138;28;20047;-75
2021/08/28 04:46:00;;;;;;;35.60;14.10;;;410.20;2355.20;;;;;;5115856;28;20019;-74
2021/08/28 04:48:27;;;;;;;49.22;13.85;;;410.20;2355.20;;;;;;5116056;28;20533;-78
2021/08/28 04:50:53;;;;;;;21.08;12.57;;;410.20;2355.20;;;;;;5103768;28;20024;-77
2021/08/28 04:53:19;;;;;;;25.05;13.23;;;410.20;2355.20;;;;;;5111842;28;20110;-75
2021/08/28 04:55:45;;;;;;;27.77;12.75;;;410.20;2355.20;;;;;;5111174;28;20043;-75
2021/08/28 04:58:12;;;;;;;25.15;13.32;;;410.20;2355.20;;;;;;5111021;28;20020;-77
2021/08/28 05:00:38;;;;;;;37.30;13.38;;;410.20;2355.20;;;;;;5108617;28;20445;-78
2021/08/28 05:03:03;;;;;;;22.75;12.15;;;410.00;2355.20;;;;;;5109462;28;20024;-78
2021/08/28 05:05:30;;;;;;;26.88;13.48;;;410.00;2355.20;;;;;;5108878;28;20034;-77
2021/08/28 05:07:55;;;;;;;22.65;11.93;;;410.10;2355.20;;;;;;5111360;28;20076;-77
2021/08/28 05:10:22;;;;;;;26.98;12.50;;;410.20;2355.20;;;;;;5109969;28;20031;-75
2021/08/28 05:12:48;;;;;;;16.77;10.45;;;410.20;2355.20;;;;;;5091605;28;20040;-75
2021/08/28 05:15:14;;;;;;;19.90;11.93;;;410.00;2355.20;;;;;;5113686;28;20027;-77
2021/08/28 05:17:39;;;;;;;26.00;13.02;;;410.00;2355.20;;;;;;5090062;28;20043;-74
2021/08/28 05:20:06;;;;;;;24.13;12.55;;;410.10;2355.20;;;;;;5109094;28;20376;-78
2021/08/28 05:22:32;;;;;;;24.17;13.85;;;409.90;2355.20;;;;;;5087933;28;20138;-74
2021/08/28 05:24:57;;;;;;;19.15;13.13;;;410.00;2355.20;;;;;;5109077;28;20448;-75
2021/08/28 05:27:23;;;;;;;20.35;13.30;;;410.10;2355.20;;;;;;5107755;28;20505;-77
2021/08/28 05:29:49;;;;;;;25.88;14.02;;;409.60;2355.20;;;;;;5111941;28;20015;-76
2021/08/28 05:32:14;;;;;;;19.33;13.13;;;409.60;2355.20;;;;;;5113243;28;20028;-77
2021/08/28 05:34:40;;;;;;;21.70;14.48;;;409.70;2355.20;;;;;;5110709;28;20377;-73
2021/08/28 05:37:06;;;;;;;18.17;12.23;;;409.80;2355.20;;;;;;5105844;28;20024;-77
2021/08/28 05:39:32;;;;;;;25.75;13.63;;;409.70;2355.20;;;;;;5111352;28;20020;-76
2021/08/28 05:41:58;;;;;;;22.73;13.52;;;409.70;2355.20;;;;;;5109006;28;20031;-78
2021/08/28 05:44:24;;;;;;;23.85;12.75;;;409.60;2355.20;;;;;;5109739;28;20012;-81
2021/08/28 05:46:49;;;;;;;24.17;13.10;;;409.60;2355.20;;;;;;5111250;28;20039;-74
2021/08/28 05:49:15;;;;;;;24.48;13.55;;;384.90;2329.60;;;;;;5112862;28;20050;-75
2021/08/28 05:51:41;;;;;;;23.90;15.23;;;409.60;2355.20;;;;;;5113040;28;20556;-74
2021/08/28 05:54:07;;;;;;;27.60;14.80;;;409.60;2355.20;;;;;;5074918;28;20032;-84
2021/08/28 05:56:32;;;;;;;25.60;14.27;;;384.90;2329.60;;;;;;5094266;28;20524;-74
2021/08/28 05:58:58;;;;;;;22.85;14.63;;;384.80;2329.60;;;;;;5094459;28;20035;-84
2021/08/28 06:01:24;;;;;;;31.10;16.25;;;384.70;2329.60;;;;;;5107334;28;20469;-79
2021/08/28 06:03:50;;;;;;;30.95;17.50;;;384.80;2329.60;;;;;;5111109;28;20477;-81
2021/08/28 06:06:15;;;;;;;39.08;19.05;;;384.80;2329.60;;;;;;5108572;28;20024;-78
2021/08/28 06:08:41;;;;;;;24.27;15.25;;;384.90;2329.60;;;;;;5111021;28;20406;-77
2021/08/28 06:11:07;;;;;;;26.38;15.02;;;409.70;2355.20;;;;;;5110310;28;20473;-74
2021/08/28 06:13:32;;;;;;;29.60;16.40;;;409.70;2355.20;;;;;;5097257;28;20370;-75
2021/08/28 06:15:58;;;;;;;29.92;16.95;;;409.70;2355.20;;;;;;5110704;28;20058;-74
2021/08/28 06:18:24;;;;;;;27.90;16.73;;;384.90;2329.60;;;;;;5107568;28;20031;-78
2021/08/28 06:20:50;;;;;;;28.92;17.73;;;384.90;2329.60;;;;;;5102306;28;20020;-76
2021/08/28 06:23:16;;;;;;;35.05;18.80;;;384.90;2329.60;;;;;;5104751;28;20384;-76
2021/08/28 06:25:42;;;;;;;34.55;17.48;;;409.60;2355.20;;;;;;5110811;28;20028;-74
2021/08/28 06:28:08;;;;;;;29.40;15.18;;;409.70;2355.20;;;;;;5109676;28;20026;-74
2021/08/28 06:30:34;;;;;;;32.75;18.98;;;384.90;2329.60;;;;;;5108951;28;20407;-76
2021/08/28 06:33:00;;;;;;;25.30;15.07;;;409.70;2355.20;;;;;;5110503;28;20039;-76
2021/08/28 06:35:26;;;;;;;25.38;14.50;;;409.90;2355.20;;;;;;5107904;28;20020;-76
2021/08/28 06:37:51;;;;;;;25.95;14.85;;;409.90;2355.20;;;;;;5102023;28;20028;-76
2021/08/28 06:40:17;;;;;;;27.25;16.48;;;410.00;2355.20;;;;;;5104823;28;20028;-74
2021/08/28 06:42:43;;;;;;;25.55;14.85;;;409.90;2355.20;;;;;;5110528;28;20020;-75
2021/08/28 06:45:09;;;;;;;27.95;16.77;;;409.80;2355.20;;;;;;5109407;28;20024;-74
2021/08/28 06:47:35;;;;;;;22.23;14.68;;;409.80;2355.20;;;;;;5090829;28;20027;-75
2021/08/28 06:50:01;;;;;;;23.85;14.80;;;409.90;2355.20;;;;;;5110554;28;20019;-76
2021/08/28 06:52:27;;;;;;;21.92;14.32;;;410.00;2355.20;;;;;;5107715;28;20032;-75
2021/08/28 06:54:52;;;;;;;22.70;15.02;;;410.20;2355.20;;;;;;5110240;28;20055;-74
2021/08/28 06:57:18;;;;;;;22.35;14.15;;;410.20;2355.20;;;;;;5099699;28;20024;-74
2021/08/28 06:59:44;;;;;;;21.38;12.32;;;410.10;2355.20;;;;;;5103200;28;20020;-73
2021/08/28 07:02:09;;;;;;;20.77;13.55;;;410.30;2355.20;;;;;;5092092;28;20023;-73
2021/08/28 07:04:35;;;;;;;19.48;13.25;;;410.30;2355.20;;;;;;5091839;28;20033;-73
2021/08/28 07:07:01;;;;;;;16.67;12.45;;;410.50;2355.20;;;;;;5098483;28;20031;-73
2021/08/28 07:09:27;;;;;;;17.15;11.75;;;410.50;2355.20;;;;;;5099714;28;20031;-73
2021/08/28 07:11:53;;;;;;;15.85;11.45;;;435.20;2355.20;;;;;;5091894;28;20032;-72
2021/08/28 07:14:18;;;;;;;18.40;11.90;;;410.50;2355.20;;;;;;5091584;28;20028;-73
2021/08/28 07:16:44;;;;;;;15.00;10.55;;;410.50;2355.20;;;;;;5090745;28;20103;-73
2021/08/28 07:19:10;;;;;;;17.60;11.25;;;410.50;2355.20;;;;;;5092013;28;20028;-76
2021/08/28 07:21:36;;;;;;;17.73;12.07;;;435.20;2355.20;;;;;;5091556;28;20619;-75
2021/08/28 07:24:01;;;;;;;17.58;12.60;;;435.20;2355.20;;;;;;5091751;28;20031;-74
2021/08/28 07:26:27;;;;;;;24.85;13.00;;;435.30;2355.20;;;;;;5091783;28;20048;-74
2021/08/28 07:28:53;;;;;;;18.77;11.90;;;435.20;2355.20;;;;;;5093686;28;20020;-73
2021/08/28 07:31:18;;;;;;;19.88;12.25;;;410.50;2355.20;;;;;;5095307;28;20048;-75
2021/08/28 07:33:44;;;;;;;19.90;12.30;;;410.30;2355.20;;;;;;5095341;28;20026;-76
2021/08/28 07:36:10;;;;;;;18.70;11.38;;;410.40;2355.20;;;;;;5095463;28;20035;-75
2021/08/28 07:38:36;;;;;;;15.57;10.10;;;410.30;2355.20;;;;;;5095372;28;20054;-75
2021/08/28 07:41:02;;;;;;;13.70;9.32;;;410.50;2355.20;;;;;;5098660;28;20043;-76
2021/08/28 07:43:28;;;;;;;19.75;10.93;;;410.50;2355.20;;;;;;5097560;28;20028;-75
2021/08/28 07:45:54;;;;;;;16.63;10.18;;;410.30;2355.20;;;;;;5095275;28;20655;-75
2021/08/28 07:48:20;;;;;;;14.77;10.20;;;410.00;2355.20;;;;;;5077046;28;20020;-74
2021/08/28 07:50:46;;;;;;;16.20;10.25;;;410.10;2355.20;;;;;;5095102;28;20035;-75
2021/08/28 07:53:12;;;;;;;14.70;9.73;;;410.20;2355.20;;;;;;5096629;28;20040;-74
2021/08/28 07:55:37;;;;;;;12.27;8.52;;;410.00;2355.20;;;;;;5094370;28;20405;-76
2021/08/28 07:58:03;;;;;;;11.50;8.25;;;410.20;2355.20;;;;;;5095010;28;20020;-75
2021/08/28 08:00:29;;;;;;;12.27;8.77;;;410.30;2355.20;;;;;;5094640;28;20016;-75
2021/08/28 08:02:55;;;;;;;14.00;9.00;;;410.30;2355.20;;;;;;5095113;28;20524;-75
2021/08/28 08:05:20;;;;;;;12.02;9.20;;;410.30;2355.20;;;;;;5098050;28;20077;-76
2021/08/28 08:07:46;;;;;;;11.63;7.85;;;410.20;2355.20;;;;;;5089941;28;20034;-75
2021/08/28 08:10:12;;;;;;;12.75;8.52;;;410.30;2355.20;;;;;;5103235;28;20028;-75
2021/08/28 08:12:38;;;;;;;15.57;9.00;;;410.30;2355.20;;;;;;5094892;28;20059;-75
2021/08/28 08:15:04;;;;;;;13.13;9.05;;;410.30;2355.20;;;;;;5102989;28;20430;-75
2021/08/28 08:17:30;;;;;;;11.88;8.20;;;410.30;2355.20;;;;;;5100353;28;20030;-75
2021/08/28 08:19:56;;;;;;;11.23;8.80;;;410.10;2355.20;;;;;;5106251;28;20098;-75
2021/08/28 08:22:22;;;;;;;12.90;8.60;;;410.00;2355.20;;;;;;5104571;28;20025;-75
2021/08/28 08:24:49;;;;;;;16.52;9.32;;;410.10;2355.20;;;;;;5094360;28;20434;-75
2021/08/28 08:27:14;;;;;;;14.73;9.32;;;410.30;2355.20;;;;;;5094514;28;20020;-75
2021/08/28 08:29:40;;;;;;;12.88;8.55;;;410.50;2355.20;;;;;;5095314;28;20027;-76
2021/08/28 08:32:06;;;;;;;11.68;7.78;;;435.20;2355.20;;;;;;5096562;28;20088;-75
2021/08/28 08:34:32;;;;;;;11.23;8.20;;;435.30;2355.20;;;;;;5095736;28;20024;-74
2021/08/28 08:36:58;;;;;;;16.02;8.23;;;435.20;2355.20;;;;;;5094124;28;20355;-74
2021/08/28 08:39:24;;;;;;;12.38;8.07;;;435.30;2355.20;;;;;;5093888;28;20058;-75
2021/08/28 08:41:50;;;;;;;13.70;7.90;;;435.30;2355.20;;;;;;5093939;28;20027;-75
2021/08/28 08:44:16;;;;;;;12.52;7.90;;;435.50;2355.20;;;;;;5105561;28;20040;-74
2021/08/28 08:46:44;;;;;;;10.00;6.82;;;435.60;2355.20;;;;;;5096765;28;20123;-75
2021/08/28 08:49:12;;;;;;;11.43;7.15;;;435.70;2355.20;;;;;;5093692;28;20027;-75
2021/08/28 08:51:38;;;;;;;13.70;7.68;;;435.80;2355.20;;;;;;5093907;28;20080;-75
2021/08/28 08:54:05;;;;;;;9.52;6.95;;;435.90;2355.20;;;;;;5093769;28;20016;-73
2021/08/28 08:56:31;;;;;;;10.98;7.85;;;436.00;2355.20;;;;;;5100780;28;20034;-76
2021/08/28 08:58:58;;;;;;;14.63;7.93;;;436.00;2355.20;;;;;;5105513;28;20469;-75
2021/08/28 09:01:24;;;;;;;13.18;8.18;;;435.90;2355.20;;;;;;5088320;28;20039;-75
2021/08/28 09:03:50;;;;;;;16.45;8.13;;;435.80;2355.20;;;;;;5093675;28;20020;-76
2021/08/28 09:06:16;;;;;;;13.30;8.25;;;435.90;2355.20;;;;;;5096193;28;20024;-74
2021/08/28 09:08:43;;;;;;;12.90;8.85;;;436.00;2355.20;;;;;;5096079;28;20481;-74
2021/08/28 09:11:24;;;;;;;12.18;7.95;;;435.90;2355.20;;;;;;5098135;28;20023;-74
2021/08/28 09:13:52;;;;;;;12.68;8.38;;;435.90;2355.20;;;;;;5082639;28;20035;-73
2021/08/28 09:16:31;;;;;;;13.43;7.47;;;435.90;2355.20;;;;;;5093871;28;20035;-74
2021/08/28 09:18:58;;;;;;;11.57;8.23;;;436.00;2355.20;;;;;;5092253;28;20024;-76
2021/08/28 09:21:31;;;;;;;13.40;9.18;;;435.90;2355.20;;;;;;5093381;28;20059;-75
2021/08/28 09:24:06;;;;;;;10.82;7.45;;;436.00;2355.20;;;;;;5093467;28;20022;-75
2021/08/28 09:26:41;;;;;;;11.52;7.45;;;436.10;2355.20;;;;;;5093086;28;20056;-74
2021/08/28 09:29:09;;;;;;;11.13;6.90;;;436.10;2355.20;;;;;;5091474;28;20377;-75
2021/08/28 09:31:36;;;;;;;9.40;6.50;;;460.80;2380.80;;;;;;5093154;28;20030;-75
2021/08/28 09:34:23;;;;;;;9.05;6.32;;;460.80;2380.80;;;;;;5106312;28;20027;-76
2021/08/28 09:37:06;;;;;;;9.95;6.32;;;460.90;2380.80;;;;;;5107079;28;20171;-74
2021/08/28 09:39:42;;;;;;;10.73;7.13;;;460.80;2380.80;;;;;;5090366;28;20111;-75
2021/08/28 09:42:09;;;;;;;;;;;460.80;2380.80;;;;;;5105661;28;20024;-74
2021/08/28 09:44:45;;;;;;;9.38;7.25;;;460.80;2380.80;;;;;;5093038;28;19904;-74
2021/08/28 09:47:20;;;;;;;8.65;6.97;;;460.80;2380.80;;;;;;5101094;28;20491;-74
2021/08/28 09:49:48;;;;;;;11.07;6.60;;;460.80;2380.80;;;;;;5091088;28;20032;-75
2021/08/28 09:52:21;;;;;;;10.45;6.28;;;460.80;2380.80;;;;;;5094664;28;20035;-74
2021/08/28 09:54:47;;;;;;;8.75;6.03;;;460.90;2380.80;;;;;;5092872;28;20047;-74
2021/08/28 09:57:13;;;;;;;6.60;4.95;;;460.90;2380.80;;;;;;5093133;28;20024;-74
2021/08/28 09:59:39;;;;;;;7.57;5.40;;;461.00;2380.80;;;;;;5107194;28;20028;-75
2021/08/28 10:02:07;;;;;;;7.65;5.40;;;461.00;2380.80;;;;;;5103593;28;20054;-75
2021/08/28 10:04:49;;;;;;;7.53;5.28;;;461.00;2380.80;;;;;;5113048;28;20084;-75
2021/08/28 10:07:42;;;;;;;8.25;6.53;;;460.90;2380.80;;;;;;5101880;28;20385;-74
2021/08/28 10:10:08;;;;;;;9.57;6.07;;;460.90;2380.80;;;;;;5088968;28;20107;-75
2021/08/28 10:12:36;;;;;;;10.88;6.25;;;460.90;2380.80;;;;;;5105685;28;20031;-74
2021/08/28 10:15:07;;;;;;;8.55;6.15;;;460.90;2380.80;;;;;;5106810;28;20054;-75
2021/08/28 10:17:34;;;;;;;11.07;6.47;;;460.80;2380.80;;;;;;5103305;28;20020;-74
2021/08/28 10:20:02;;;;;;;8.95;6.30;;;460.90;2380.80;;;;;;5094689;28;20029;-74
2021/08/28 10:22:32;;;;;;;10.02;6.80;;;460.90;2380.80;;;;;;5089229;28;20068;-75
2021/08/28 10:25:03;;;;;;;8.00;6.07;;;461.00;2380.80;;;;;;5095900;28;20100;-75
2021/08/28 10:27:29;;;;;;;8.15;5.68;;;461.00;2380.80;;;;;;5108860;28;20020;-74
2021/08/28 10:29:55;;;;;;;9.05;5.38;;;461.10;2380.80;;;;;;5107485;28;20012;-75
2021/08/28 10:32:22;;;;;;;7.43;5.30;;;461.10;2380.80;;;;;;5096371;28;20027;-76
2021/08/28 10:34:49;;;;;;;8.18;5.45;;;461.10;2380.80;;;;;;5109134;28;20422;-77
2021/08/28 10:37:16;;;;;;;11.00;6.50;;;461.00;2380.80;;;;;;5105075;28;20032;-78
2021/08/28 10:39:43;;;;;;;8.60;5.35;;;461.10;2380.80;;;;;;5109820;28;20068;-75
2021/08/28 10:42:11;;;;;;;7.95;5.53;;;461.00;2380.80;;;;;;5101708;28;20039;-78
2021/08/28 10:44:38;;;;;;;8.48;5.25;;;461.00;2380.80;;;;;;5092581;28;20028;-79
2021/08/28 10:47:19;;;;;;;8.00;5.68;;;461.00;2380.80;;;;;;5092381;28;20093;-77
2021/08/28 10:49:50;;;;;;;8.45;6.28;;;461.00;2380.80;;;;;;5092319;28;20083;-78
2021/08/28 10:52:18;;;;;;;8.18;5.38;;;461.00;2380.80;;;;;;5092320;28;20040;-78
2021/08/28 10:54:52;;;;;;;9.45;6.20;;;461.10;2380.80;;;;;;5092131;28;20183;-78
2021/08/28 10:57:21;;;;;;;10.15;6.50;;;461.10;2380.80;;;;;;5092462;28;20469;-75
2021/08/28 11:00:02;;;;;;;7.88;5.30;;;461.20;2380.80;;;;;;5068996;28;20016;-79
2021/08/28 11:02:46;;;;;;;9.25;6.43;;;461.20;2380.80;;;;;;5071480;28;20036;-78
2021/08/28 11:05:17;;;;;;;6.50;4.82;;;461.20;2380.80;;;;;;5094202;28;20059;-78
2021/08/28 11:07:43;;;;;;;6.35;4.80;;;461.10;2380.80;;;;;;5096080;28;20031;-75
2021/08/28 11:10:24;;;;;;;9.32;4.45;;;461.20;2380.80;;;;;;5077795;28;20016;-75
2021/08/28 11:13:02;;;;;;;5.93;4.57;;;461.30;2380.80;;;;;;5093675;28;20447;-76
2021/08/28 11:15:27;;;;;;;5.32;3.83;;;461.30;2380.80;;;;;;5093312;28;20020;-76
2021/08/28 11:17:55;;;;;;;6.65;4.75;;;461.20;2380.80;;;;;;5102951;28;20026;-75
2021/08/28 11:20:28;;;;;;;5.45;3.85;;;461.20;2380.80;;;;;;5099603;28;20020;-76
2021/08/28 11:22:55;;;;;;;5.13;3.90;;;461.30;2380.80;;;;;;5102754;28;20126;-80
2021/08/28 11:25:32;;;;;;;7.65;4.72;;;461.30;2380.80;;;;;;5099647;28;20012;-79
2021/08/28 11:28:03;;;;;;;7.55;3.75;;;461.30;2380.80;;;;;;5102256;28;20019;-77
2021/08/28 11:30:47;;;;;;;5.55;4.25;;;461.30;2380.80;;;;;;5099213;28;20012;-77
2021/08/28 11:33:33;;;;;;;7.85;4.07;;;461.40;2380.80;;;;;;5080937;28;20126;-76
2021/08/28 11:36:22;;;;;;;12.20;5.43;;;461.40;2380.80;;;;;;5080918;28;20089;-75
2021/08/28 11:38:56;;;;;;;7.15;5.05;;;461.50;2380.80;;;;;;5033121;28;20483;-75
2021/08/28 11:41:25;;;;;;;8.35;6.10;;;461.40;2380.80;;;;;;5033280;28;20033;-77
2021/08/28 11:43:53;;;;;;;7.38;4.00;;;461.30;2380.80;;;;;;5033133;28;20034;-78
2021/08/28 11:46:26;;;;;;;7.07;5.35;;;461.30;2380.80;;;;;;5016453;28;20030;-77
2021/08/28 11:48:52;;;;;;;5.57;4.50;;;461.30;2380.80;;;;;;5030683;28;20025;-75
2021/08/28 11:51:19;;;;;;;8.35;4.68;;;461.20;2380.80;;;;;;5032765;28;20036;-75
2021/08/28 11:53:49;;;;;;;8.63;5.60;;;461.30;2380.80;;;;;;5032699;28;20558;-78
2021/08/28 11:56:20;;;;;;;7.25;4.75;;;461.30;2380.80;;;;;;5032577;28;20050;-76
2021/08/28 11:58:51;;;;;;;7.25;5.55;;;461.40;2380.80;;;;;;5033084;28;20099;-78
2021/08/28 12:01:26;;;;;;;5.35;3.67;;;461.40;2380.80;;;;;;5032478;28;20030;-76
2021/08/28 12:03:52;;;;;;;8.70;4.65;;;461.40;2380.80;;;;;;5032945;28;20069;-75
2021/08/28 12:06:18;;;;;;;4.97;3.90;;;461.50;2380.80;;;;;;5032841;28;20518;-75
2021/08/28 12:08:44;;;;;;;5.70;4.05;;;461.50;2380.80;;;;;;5032833;28;20029;-75
2021/08/28 12:11:14;;;;;;;8.27;4.03;;;461.50;2380.80;;;;;;5032680;28;20075;-75